Time;durP1;ratioP1;P1;durP2;ratioP2;P2;SDS_P1;SDS_P2;PMS_P1;PMS_P2;Temp;Humidity;BMP_temperature;BMP_pressure;BME280_temperature;BME280_humidity;BME280_pressure;Samples;Min_cycle;Max_cycle;Signal;HPM_P1;HPM_P2
2023/04/15 01:41:52;;;;;;;0.60;0.60;;;;;;;;;;6219774;22;20200;-91
2023/04/15 01:44:57;;;;;;;0.40;0.40;;;;;;;;;;6208434;23;20159;-90
2023/04/15 01:48:15;;;;;;;1.17;0.70;;;;;;;;;;6210135;23;20271;-88
2023/04/15 01:51:21;;;;;;;0.67;0.67;;;;;;;;;;6209832;23;20171;-88
2023/04/15 01:54:27;;;;;;;1.33;0.80;;;;;;;;;;6209267;23;20175;-89
2023/04/15 01:57:35;;;;;;;0.70;0.70;;;;;;;;;;6208596;23;20647;-88
2023/04/15 02:00:40;;;;;;;0.50;0.50;;;;;;;;;;6209717;23;20167;-91
2023/04/15 02:03:46;;;;;;;0.67;0.67;;;;;;;;;;6210200;23;20194;-89
2023/04/15 02:06:53;;;;;;;1.17;1.07;;;;;;;;;;6208535;23;20210;-90
2023/04/15 02:10:00;;;;;;;1.20;0.80;;;;;;;;;;6208490;23;20168;-90
2023/04/15 02:13:09;;;;;;;0.67;0.63;;;;;;;;;;6208480;23;20237;-88
2023/04/15 02:16:18;;;;;;;0.87;0.83;;;;;;;;;;6209682;23;20158;-90
2023/04/15 02:19:22;;;;;;;1.33;0.83;;;;;;;;;;6209851;23;20176;-91
2023/04/15 02:22:29;;;;;;;0.63;0.63;;;;;;;;;;6208190;23;20179;-89
2023/04/15 02:25:33;;;;;;;0.60;0.60;;;;;;;;;;6209021;23;20259;-90
2023/04/15 02:28:40;;;;;;;0.50;0.50;;;;;;;;;;6207333;23;20199;-90
2023/04/15 02:31:45;;;;;;;0.53;0.53;;;;;;;;;;6208948;23;20171;-90
2023/04/15 02:34:50;;;;;;;0.30;0.30;;;;;;;;;;6208706;23;20622;-88
2023/04/15 02:37:56;;;;;;;0.70;0.60;;;;;;;;;;6207373;23;20258;-90
2023/04/15 02:41:01;;;;;;;0.63;0.63;;;;;;;;;;6208549;23;20187;-90
2023/04/15 02:44:08;;;;;;;0.40;0.40;;;;;;;;;;6207926;23;20167;-91
2023/04/15 02:47:46;;;;;;;0.50;0.50;;;;;;;;;;6207478;23;20222;-89
2023/04/15 02:50:51;;;;;;;0.93;0.93;;;;;;;;;;6208463;23;20167;-89
2023/04/15 02:53:56;;;;;;;0.97;0.47;;;;;;;;;;6208932;23;20285;-88
2023/04/15 02:57:01;;;;;;;0.50;0.50;;;;;;;;;;6208141;23;20183;-90
2023/04/15 03:00:10;;;;;;;0.63;0.63;;;;;;;;;;6207732;23;20241;-91
2023/04/15 03:03:18;;;;;;;2.43;1.33;;;;;;;;;;6208087;23;20179;-90
2023/04/15 03:06:23;;;;;;;0.93;0.70;;;;;;;;;;6208666;23;20191;-89
2023/04/15 03:09:29;;;;;;;0.40;0.40;;;;;;;;;;6208454;23;20190;-90
2023/04/15 03:12:34;;;;;;;0.50;0.50;;;;;;;;;;6208598;23;20597;-91
2023/04/15 03:15:40;;;;;;;1.00;0.90;;;;;;;;;;6206155;23;20170;-90
2023/04/15 03:18:45;;;;;;;0.67;0.67;;;;;;;;;;6208094;23;20494;-90
2023/04/15 03:22:15;;;;;;;0.40;0.40;;;;;;;;;;6207004;23;20168;-89
2023/04/15 03:25:20;;;;;;;1.80;1.03;;;;;;;;;;6208586;23;20167;-88
2023/04/15 03:28:26;;;;;;;0.43;0.43;;;;;;;;;;6207343;23;20207;-91
2023/04/15 03:31:35;;;;;;;0.40;0.40;;;;;;;;;;6209603;23;20232;-89
2023/04/15 03:34:40;;;;;;;1.37;1.27;;;;;;;;;;6208306;23;20611;-90
2023/04/15 03:37:47;;;;;;;0.67;0.60;;;;;;;;;;6208343;23;20155;-90
2023/04/15 03:40:53;;;;;;;1.17;1.10;;;;;;;;;;6208377;23;20186;-90
2023/04/15 03:43:58;;;;;;;0.70;0.70;;;;;;;;;;6208930;23;20170;-91
2023/04/15 03:47:04;;;;;;;0.73;0.73;;;;;;;;;;6206314;23;20219;-88
2023/04/15 03:50:09;;;;;;;1.67;1.53;;;;;;;;;;6207875;23;20245;-91
2023/04/15 03:53:14;;;;;;;0.53;0.53;;;;;;;;;;6207873;23;20170;-90
2023/04/15 03:56:19;;;;;;;1.10;1.10;;;;;;;;;;6207602;23;20626;-90
2023/04/15 03:59:24;;;;;;;0.70;0.70;;;;;;;;;;6207707;23;20622;-90
2023/04/15 04:02:31;;;;;;;0.30;0.30;;;;;;;;;;6204581;23;20171;-89
2023/04/15 04:05:37;;;;;;;0.50;0.50;;;;;;;;;;6207342;23;20159;-90
2023/04/15 04:08:43;;;;;;;0.77;0.77;;;;;;;;;;6206999;23;20291;-90
2023/04/15 04:11:48;;;;;;;0.30;0.30;;;;;;;;;;6207979;23;20176;-90
2023/04/15 04:14:53;;;;;;;0.30;0.30;;;;;;;;;;6207134;23;20225;-90
2023/04/15 04:18:04;;;;;;;0.60;0.60;;;;;;;;;;6205462;23;20218;-89
2023/04/15 04:21:09;;;;;;;0.30;0.30;;;;;;;;;;6205630;23;20174;-90
2023/04/15 04:24:14;;;;;;;0.30;0.30;;;;;;;;;;6205920;23;20166;-90
2023/04/15 04:27:19;;;;;;;0.37;0.37;;;;;;;;;;6205565;23;20685;-90
2023/04/15 04:30:24;;;;;;;0.30;0.30;;;;;;;;;;6206002;23;20175;-89
2023/04/15 04:33:31;;;;;;;0.30;0.30;;;;;;;;;;6206081;23;20502;-90
2023/04/15 04:36:36;;;;;;;0.43;0.43;;;;;;;;;;6206136;23;20167;-89
2023/04/15 04:39:40;;;;;;;0.33;0.33;;;;;;;;;;6205391;23;20190;-88
2023/04/15 04:42:45;;;;;;;0.30;0.30;;;;;;;;;;6207160;23;20211;-89
2023/04/15 04:45:50;;;;;;;1.23;1.13;;;;;;;;;;6206495;23;20171;-92
2023/04/15 04:48:58;;;;;;;0.70;0.70;;;;;;;;;;6207641;23;20244;-91
2023/04/15 04:52:03;;;;;;;0.50;0.50;;;;;;;;;;6207485;23;20643;-90
2023/04/15 04:55:09;;;;;;;0.53;0.53;;;;;;;;;;6208734;23;20167;-91
2023/04/15 04:58:14;;;;;;;0.40;0.40;;;;;;;;;;6208828;23;20253;-89
2023/04/15 05:01:19;;;;;;;0.60;0.60;;;;;;;;;;6208433;23;20167;-90
2023/04/15 05:04:26;;;;;;;0.30;0.30;;;;;;;;;;6208337;23;20242;-90
2023/04/15 05:07:31;;;;;;;0.50;0.50;;;;;;;;;;6205249;23;20199;-90
2023/04/15 05:10:36;;;;;;;0.47;0.47;;;;;;;;;;6207193;23;20151;-92
2023/04/15 05:13:41;;;;;;;0.40;0.40;;;;;;;;;;6208014;23;20163;-91
2023/04/15 05:17:27;;;;;;;0.67;0.53;;;;;;;;;;6205049;23;20235;-88
2023/04/15 05:20:33;;;;;;;0.43;0.43;;;;;;;;;;6204770;23;20500;-90
2023/04/15 05:23:43;;;;;;;0.30;0.30;;;;;;;;;;6207485;23;20188;-89
2023/04/15 05:26:48;;;;;;;2.80;1.07;;;;;;;;;;6208284;23;20191;-90
2023/04/15 05:29:55;;;;;;;0.53;0.53;;;;;;;;;;6207590;23;20166;-90
2023/04/15 05:33:00;;;;;;;0.40;0.40;;;;;;;;;;6209641;23;20167;-90
2023/04/15 05:36:07;;;;;;;0.30;0.30;;;;;;;;;;6206791;23;20175;-90
2023/04/15 05:39:12;;;;;;;0.50;0.50;;;;;;;;;;6207964;23;20181;-89
2023/04/15 05:42:27;;;;;;;0.30;0.30;;;;;;;;;;6213435;23;20150;-90
2023/04/15 05:45:32;;;;;;;0.40;0.40;;;;;;;;;;6207591;23;20186;-90
2023/04/15 05:48:37;;;;;;;0.30;0.30;;;;;;;;;;6210579;23;20198;-91
2023/04/15 05:51:43;;;;;;;0.30;0.30;;;;;;;;;;6208625;23;20176;-90
2023/04/15 05:54:48;;;;;;;0.30;0.30;;;;;;;;;;6208756;23;20187;-90
2023/04/15 05:57:53;;;;;;;0.30;0.30;;;;;;;;;;6207555;23;20549;-89
2023/04/15 06:00:59;;;;;;;0.30;0.30;;;;;;;;;;6208099;23;20249;-92
2023/04/15 06:04:04;;;;;;;0.30;0.30;;;;;;;;;;6207895;23;20200;-89
2023/04/15 06:07:10;;;;;;;0.30;0.30;;;;;;;;;;6206009;23;20374;-91
2023/04/15 06:10:16;;;;;;;0.50;0.50;;;;;;;;;;6207431;23;20162;-91
2023/04/15 06:13:21;;;;;;;0.30;0.30;;;;;;;;;;6206611;23;20172;-89
2023/04/15 06:16:57;;;;;;;0.30;0.30;;;;;;;;;;6206697;23;20178;-91
2023/04/15 06:20:03;;;;;;;0.30;0.30;;;;;;;;;;6207399;23;20210;-90
2023/04/15 06:27:29;;;;;;;0.30;0.30;;;;;;;;;;6224352;23;20171;-89
2023/04/15 06:30:35;;;;;;;0.30;0.30;;;;;;;;;;6205130;23;20681;-90
2023/04/15 06:33:40;;;;;;;0.30;0.30;;;;;;;;;;6206868;23;20191;-90
2023/04/15 06:36:45;;;;;;;0.80;0.80;;;;;;;;;;6209163;23;20166;-90
2023/04/15 06:39:50;;;;;;;0.40;0.40;;;;;;;;;;6211583;23;20159;-90
2023/04/15 06:42:57;;;;;;;0.40;0.40;;;;;;;;;;6210802;23;20167;-90
2023/04/15 06:46:02;;;;;;;0.30;0.30;;;;;;;;;;6211688;23;20171;-89
2023/04/15 06:49:08;;;;;;;0.40;0.40;;;;;;;;;;6209640;23;20171;-90
2023/04/15 06:52:13;;;;;;;0.70;0.70;;;;;;;;;;6210218;23;20175;-90
2023/04/15 06:55:18;;;;;;;0.30;0.30;;;;;;;;;;6209757;23;20218;-90
2023/04/15 06:58:24;;;;;;;0.30;0.30;;;;;;;;;;6210291;23;20215;-90
2023/04/15 07:01:29;;;;;;;0.33;0.33;;;;;;;;;;6210906;23;20302;-90
2023/04/15 07:04:34;;;;;;;0.30;0.30;;;;;;;;;;6212993;23;20211;-89
2023/04/15 07:07:40;;;;;;;0.30;0.30;;;;;;;;;;6207817;23;20538;-88
2023/04/15 07:10:45;;;;;;;0.40;0.40;;;;;;;;;;6207838;23;20183;-93
2023/04/15 07:13:52;;;;;;;0.40;0.40;;;;;;;;;;6206986;23;20211;-89
2023/04/15 07:16:57;;;;;;;0.30;0.30;;;;;;;;;;6211136;23;20159;-90
2023/04/15 07:20:03;;;;;;;0.30;0.30;;;;;;;;;;6210798;23;20242;-90
2023/04/15 07:23:13;;;;;;;0.50;0.50;;;;;;;;;;6211318;23;20170;-89
2023/04/15 07:26:18;;;;;;;4.03;1.23;;;;;;;;;;6207634;23;20171;-90
2023/04/15 07:29:25;;;;;;;0.30;0.30;;;;;;;;;;6207701;23;20222;-89
2023/04/15 07:32:30;;;;;;;0.30;0.30;;;;;;;;;;6210426;23;20168;-92
2023/04/15 07:35:35;;;;;;;0.50;0.50;;;;;;;;;;6209628;23;20179;-90
2023/04/15 07:38:40;;;;;;;0.30;0.30;;;;;;;;;;6208759;23;20178;-89
2023/04/15 07:41:46;;;;;;;0.30;0.30;;;;;;;;;;6209180;23;20199;-89
2023/04/15 07:44:53;;;;;;;0.30;0.30;;;;;;;;;;6209881;23;20163;-90
2023/04/15 07:48:02;;;;;;;0.30;0.30;;;;;;;;;;6207560;23;20191;-88
2023/04/15 07:51:09;;;;;;;0.33;0.33;;;;;;;;;;6207860;23;20220;-89
2023/04/15 07:54:15;;;;;;;0.30;0.30;;;;;;;;;;6210108;23;20261;-88
2023/04/15 07:57:20;;;;;;;0.30;0.30;;;;;;;;;;6206441;23;20175;-88
2023/04/15 08:00:27;;;;;;;0.30;0.30;;;;;;;;;;6209249;23;20174;-89
2023/04/15 08:03:33;;;;;;;0.37;0.37;;;;;;;;;;6209154;23;20270;-89
2023/04/15 08:06:38;;;;;;;0.40;0.40;;;;;;;;;;6209010;23;20234;-89
2023/04/15 08:09:43;;;;;;;0.60;0.60;;;;;;;;;;6208064;23;20171;-88
2023/04/15 08:12:53;;;;;;;0.40;0.40;;;;;;;;;;6207942;23;20171;-89
2023/04/15 08:16:12;;;;;;;0.53;0.53;;;;;;;;;;6226682;23;20171;-88
2023/04/15 08:19:20;;;;;;;0.30;0.30;;;;;;;;;;6209853;23;20777;-91
2023/04/15 08:22:25;;;;;;;0.30;0.30;;;;;;;;;;6208457;23;20171;-92
2023/04/15 08:25:30;;;;;;;0.40;0.40;;;;;;;;;;6206469;23;20180;-91
2023/04/15 08:28:35;;;;;;;0.30;0.30;;;;;;;;;;6207521;23;20191;-89
2023/04/15 08:31:40;;;;;;;0.40;0.40;;;;;;;;;;6207649;23;20199;-89
2023/04/15 08:34:47;;;;;;;2.10;0.87;;;;;;;;;;6225938;23;20175;-90
2023/04/15 08:37:52;;;;;;;0.30;0.30;;;;;;;;;;6209713;23;20261;-90
2023/04/15 08:40:58;;;;;;;0.90;0.83;;;;;;;;;;6209263;23;20186;-90
2023/04/15 08:44:05;;;;;;;0.30;0.30;;;;;;;;;;6210500;23;20174;-88
2023/04/15 08:47:14;;;;;;;0.40;0.40;;;;;;;;;;6209929;23;20162;-89
2023/04/15 08:50:22;;;;;;;0.40;0.40;;;;;;;;;;6209679;23;20610;-88
2023/04/15 08:53:30;;;;;;;0.30;0.30;;;;;;;;;;6211414;23;20171;-91
2023/04/15 08:56:36;;;;;;;0.43;0.43;;;;;;;;;;6211052;23;20485;-87
2023/04/15 08:59:41;;;;;;;0.90;0.77;;;;;;;;;;6208559;23;20170;-87
2023/04/15 09:02:47;;;;;;;0.30;0.30;;;;;;;;;;6208584;23;20155;-89
2023/04/15 09:05:54;;;;;;;0.40;0.40;;;;;;;;;;6207864;23;20175;-87
2023/04/15 09:08:59;;;;;;;0.30;0.30;;;;;;;;;;6209022;23;20263;-90
2023/04/15 09:12:10;;;;;;;0.30;0.30;;;;;;;;;;6207576;23;20610;-88
2023/04/15 09:15:16;;;;;;;0.60;0.60;;;;;;;;;;6206509;23;20174;-90
2023/04/15 09:18:28;;;;;;;0.30;0.30;;;;;;;;;;6205869;23;20249;-89
2023/04/15 09:21:37;;;;;;;0.30;0.30;;;;;;;;;;6206338;23;20215;-89
2023/04/15 09:24:42;;;;;;;0.37;0.37;;;;;;;;;;6206278;23;20175;-89
2023/04/15 09:27:50;;;;;;;0.30;0.30;;;;;;;;;;6206645;23;20244;-89
2023/04/15 09:30:59;;;;;;;0.30;0.30;;;;;;;;;;6207247;23;20162;-90
2023/04/15 09:34:04;;;;;;;2.43;0.40;;;;;;;;;;6208227;23;20186;-89
2023/04/15 09:37:12;;;;;;;0.30;0.30;;;;;;;;;;6208009;23;20618;-88
2023/04/15 09:40:31;;;;;;;0.30;0.30;;;;;;;;;;6206750;23;20288;-88
2023/04/15 09:43:40;;;;;;;0.30;0.30;;;;;;;;;;6209021;23;20202;-91
2023/04/15 09:46:46;;;;;;;0.30;0.30;;;;;;;;;;6225518;23;20472;-87
2023/04/15 09:49:56;;;;;;;0.30;0.30;;;;;;;;;;6211084;23;20167;-91
2023/04/15 09:53:04;;;;;;;0.30;0.30;;;;;;;;;;6210130;23;20155;-92
2023/04/15 09:56:09;;;;;;;0.30;0.30;;;;;;;;;;6209010;23;20155;-90
2023/04/15 09:59:15;;;;;;;0.43;0.40;;;;;;;;;;6209225;23;20213;-89
2023/04/15 10:02:21;;;;;;;0.30;0.30;;;;;;;;;;6212232;23;20589;-89
2023/04/15 10:05:26;;;;;;;0.80;0.80;;;;;;;;;;6210401;23;20167;-87
2023/04/15 10:08:34;;;;;;;0.30;0.30;;;;;;;;;;6213692;23;20230;-93
2023/04/15 10:11:41;;;;;;;0.30;0.30;;;;;;;;;;6212604;23;20163;-89
2023/04/15 10:14:49;;;;;;;0.30;0.30;;;;;;;;;;6213136;23;20196;-91
2023/04/15 10:17:57;;;;;;;0.30;0.30;;;;;;;;;;6214252;23;20232;-93
2023/04/15 10:21:06;;;;;;;0.30;0.30;;;;;;;;;;6215648;23;20494;-92
2023/04/15 10:24:13;;;;;;;0.30;0.30;;;;;;;;;;6213653;23;20171;-92
2023/04/15 10:27:23;;;;;;;0.50;0.50;;;;;;;;;;6215712;23;20163;-93
2023/04/15 10:30:30;;;;;;;0.30;0.30;;;;;;;;;;6216949;23;20191;-92
2023/04/15 10:33:37;;;;;;;0.30;0.30;;;;;;;;;;6216148;23;20248;-91
2023/04/15 10:36:43;;;;;;;0.32;0.32;;;;;;;;;;6215413;23;20245;-91
2023/04/15 10:39:50;;;;;;;0.40;0.40;;;;;;;;;;6214214;23;20166;-91
2023/04/15 10:43:00;;;;;;;0.30;0.30;;;;;;;;;;6214352;23;20187;-91
2023/04/15 10:46:08;;;;;;;0.40;0.40;;;;;;;;;;6218282;23;20151;-90
2023/04/15 10:49:25;;;;;;;0.90;0.65;;;;;;;;;;6214702;23;20191;-91
2023/04/15 10:52:30;;;;;;;0.30;0.30;;;;;;;;;;6213649;23;20170;-91
2023/04/15 10:55:36;;;;;;;0.30;0.30;;;;;;;;;;6214232;23;20154;-91
2023/04/15 10:58:45;;;;;;;0.30;0.30;;;;;;;;;;6213352;23;20171;-91
2023/04/15 11:01:51;;;;;;;0.40;0.40;;;;;;;;;;6214964;23;20164;-92
2023/04/15 11:04:57;;;;;;;0.40;0.40;;;;;;;;;;6215572;23;20238;-90
2023/04/15 11:08:03;;;;;;;0.30;0.30;;;;;;;;;;6215338;23;20164;-93
2023/04/15 11:11:10;;;;;;;0.30;0.30;;;;;;;;;;6215624;23;20167;-92
2023/04/15 11:14:17;;;;;;;0.30;0.30;;;;;;;;;;6216858;23;20175;-91
2023/04/15 11:25:37;;;;;;;0.70;0.70;;;;;;;;;;6235954;23;20199;-90
2023/04/15 11:28:44;;;;;;;0.63;0.63;;;;;;;;;;6217232;23;20182;-90
2023/04/15 11:31:50;;;;;;;0.50;0.50;;;;;;;;;;6218509;23;20235;-94
2023/04/15 11:34:58;;;;;;;0.30;0.30;;;;;;;;;;6217057;23;20722;-90
2023/04/15 11:38:04;;;;;;;0.30;0.30;;;;;;;;;;6217009;23;20193;-93
2023/04/15 11:41:10;;;;;;;0.40;0.40;;;;;;;;;;6216965;23;20190;-93
2023/04/15 11:44:28;;;;;;;1.23;1.05;;;;;;;;;;6216969;23;20154;-92
2023/04/15 11:47:39;;;;;;;0.30;0.30;;;;;;;;;;6216451;23;20181;-93
2023/04/15 11:50:53;;;;;;;0.30;0.30;;;;;;;;;;6217765;23;20207;-93
2023/04/15 11:53:58;;;;;;;0.43;0.43;;;;;;;;;;6216258;23;20232;-92
2023/04/15 11:57:04;;;;;;;0.57;0.57;;;;;;;;;;6216900;23;20190;-92
2023/04/15 12:00:12;;;;;;;0.32;0.32;;;;;;;;;;6219566;23;20203;-93
2023/04/15 12:03:21;;;;;;;0.38;0.38;;;;;;;;;;6217608;23;20168;-90
2023/04/15 12:06:26;;;;;;;0.40;0.35;;;;;;;;;;6216024;23;20212;-91
2023/04/15 12:09:38;;;;;;;0.50;0.50;;;;;;;;;;6214673;23;20198;-91
2023/04/15 12:12:44;;;;;;;0.30;0.30;;;;;;;;;;6212363;23;20168;-90
2023/04/15 12:20:12;;;;;;;1.85;0.75;;;;;;;;;;6232330;23;20155;-89
2023/04/15 12:23:20;;;;;;;0.47;0.47;;;;;;;;;;6216215;23;20167;-91
2023/04/15 12:26:29;;;;;;;0.38;0.38;;;;;;;;;;6214558;23;20175;-90
2023/04/15 12:29:35;;;;;;;0.40;0.40;;;;;;;;;;6213841;23;20234;-91
2023/04/15 12:32:43;;;;;;;0.30;0.30;;;;;;;;;;6214232;23;20171;-91
2023/04/15 12:35:50;;;;;;;0.30;0.30;;;;;;;;;;6214968;23;20195;-92
2023/04/15 12:38:56;;;;;;;0.40;0.40;;;;;;;;;;6197784;23;20206;-91
2023/04/15 12:42:02;;;;;;;0.30;0.30;;;;;;;;;;6214515;23;20198;-91
2023/04/15 12:45:08;;;;;;;0.30;0.30;;;;;;;;;;6217446;23;20190;-93
2023/04/15 12:52:34;;;;;;;0.40;0.40;;;;;;;;;;6232507;23;20188;-89
2023/04/15 12:55:39;;;;;;;0.50;0.50;;;;;;;;;;6214652;23;20222;-91
2023/04/15 12:58:45;;;;;;;0.30;0.30;;;;;;;;;;6213850;23;20744;-92
2023/04/15 13:01:52;;;;;;;0.75;0.68;;;;;;;;;;6215315;23;20151;-91
2023/04/15 13:04:59;;;;;;;0.30;0.30;;;;;;;;;;6213874;23;20174;-90
2023/04/15 13:08:12;;;;;;;0.30;0.30;;;;;;;;;;6211456;23;20167;-91
2023/04/15 13:11:16;;;;;;;0.30;0.30;;;;;;;;;;6210716;23;20344;-92
2023/04/15 13:14:22;;;;;;;0.45;0.40;;;;;;;;;;6209849;23;20156;-91
2023/04/15 13:17:29;;;;;;;0.30;0.30;;;;;;;;;;6212114;23;20207;-93
2023/04/15 13:20:35;;;;;;;0.35;0.35;;;;;;;;;;6211652;23;20175;-94
2023/04/15 13:24:16;;;;;;;0.30;0.30;;;;;;;;;;6212719;23;20591;-92
2023/04/15 13:27:24;;;;;;;0.60;0.60;;;;;;;;;;6212093;23;20171;-91
2023/04/15 13:30:30;;;;;;;0.40;0.40;;;;;;;;;;6213875;23;20238;-92
2023/04/15 13:33:35;;;;;;;2.85;0.60;;;;;;;;;;6213486;23;20182;-90
2023/04/15 13:36:41;;;;;;;0.30;0.30;;;;;;;;;;6211936;23;20528;-91
2023/04/15 13:39:46;;;;;;;0.70;0.70;;;;;;;;;;6212838;23;20178;-91
2023/04/15 13:42:55;;;;;;;2.63;1.55;;;;;;;;;;6212549;23;20166;-88
2023/04/15 13:46:00;;;;;;;5.32;2.00;;;;;;;;;;6214805;23;20195;-90
2023/04/15 13:49:07;;;;;;;3.13;1.80;;;;;;;;;;6214834;23;20652;-92
2023/04/15 13:52:12;;;;;;;5.82;2.10;;;;;;;;;;6213051;23;20151;-89
2023/04/15 13:55:17;;;;;;;2.33;1.38;;;;;;;;;;6214449;23;20151;-89
2023/04/15 13:58:24;;;;;;;1.40;1.02;;;;;;;;;;6216132;23;20175;-91
2023/04/15 14:01:31;;;;;;;1.50;1.13;;;;;;;;;;6214926;23;20170;-91
2023/04/15 14:04:36;;;;;;;2.80;1.58;;;;;;;;;;6216405;23;20163;-90
2023/04/15 14:07:42;;;;;;;5.13;1.70;;;;;;;;;;6213369;23;20167;-90
2023/04/15 14:10:48;;;;;;;4.30;1.98;;;;;;;;;;6212963;23;20194;-89
2023/04/15 14:13:55;;;;;;;2.75;1.90;;;;;;;;;;6214195;23;20587;-91
2023/04/15 14:17:00;;;;;;;4.00;2.00;;;;;;;;;;6214164;23;20170;-90
2023/04/15 14:20:08;;;;;;;3.97;1.90;;;;;;;;;;6214245;23;20171;-93
2023/04/15 14:23:52;;;;;;;2.75;1.77;;;;;;;;;;6214305;23;20171;-93
2023/04/15 14:27:00;;;;;;;4.20;2.05;;;;;;;;;;6214769;23;20206;-91
2023/04/15 14:30:08;;;;;;;2.75;1.20;;;;;;;;;;6214859;23;20261;-91
2023/04/15 14:33:14;;;;;;;2.90;1.67;;;;;;;;;;6214059;23;20229;-90
2023/04/15 14:36:19;;;;;;;2.63;1.48;;;;;;;;;;6214513;23;20167;-91
2023/04/15 14:39:27;;;;;;;2.70;1.52;;;;;;;;;;6214875;23;20162;-90
2023/04/15 14:42:33;;;;;;;2.47;1.60;;;;;;;;;;6216796;23;20167;-90
